createdAt,value
2018-11-13T00:00:27.698Z,11.80
2018-11-13T00:02:58.815Z,11.70
2018-11-13T00:05:29.888Z,11.60
2018-11-13T00:08:00.730Z,11.60
2018-11-13T00:10:31.569Z,11.70
2018-11-13T00:13:03.062Z,11.70
2018-11-13T00:15:33.909Z,11.70
2018-11-13T00:18:04.930Z,11.70
2018-11-13T00:20:35.804Z,11.80
2018-11-13T00:23:07.078Z,11.70
2018-11-13T00:25:37.949Z,11.60
2018-11-13T00:28:08.758Z,11.60
2018-11-13T00:30:39.697Z,11.50
2018-11-13T00:33:10.541Z,11.50
2018-11-13T00:35:41.439Z,11.50
2018-11-13T00:38:12.469Z,11.50
2018-11-13T00:40:43.298Z,11.40
2018-11-13T00:43:14.142Z,11.40
2018-11-13T00:45:45.218Z,11.40
2018-11-13T00:48:15.814Z,11.40
2018-11-13T00:50:46.772Z,11.30
2018-11-13T00:53:17.513Z,11.30
2018-11-13T00:55:48.343Z,11.30
2018-11-13T00:58:19.224Z,11.30
2018-11-13T01:00:50.164Z,11.30
2018-11-13T01:03:21.128Z,11.30
2018-11-13T01:05:52.297Z,11.30
2018-11-13T01:08:22.760Z,11.30
2018-11-13T01:10:53.637Z,11.20
2018-11-13T01:13:24.507Z,11.20
2018-11-13T01:15:55.468Z,11.20
2018-11-13T01:18:26.619Z,11.20
2018-11-13T01:20:57.429Z,11.10
2018-11-13T01:23:28.397Z,11.10
2018-11-13T01:25:59.267Z,11.10
2018-11-13T01:28:30.199Z,11.10
2018-11-13T01:31:01.035Z,11.00
2018-11-13T01:33:31.872Z,10.90
2018-11-13T01:36:02.722Z,11.00
2018-11-13T01:38:33.540Z,11.00
2018-11-13T01:41:04.440Z,11.00
2018-11-13T01:43:35.222Z,11.00
2018-11-13T01:46:06.292Z,10.90
2018-11-13T01:48:37.107Z,10.90
2018-11-13T01:51:07.947Z,10.90
2018-11-13T01:53:38.884Z,10.90
2018-11-13T01:56:09.740Z,10.90
2018-11-13T01:58:40.631Z,10.90
2018-11-13T02:01:11.531Z,10.70
2018-11-13T02:03:42.408Z,10.70
2018-11-13T02:06:13.374Z,10.80
2018-11-13T02:08:44.236Z,10.80
2018-11-13T02:11:15.257Z,10.80
2018-11-13T02:13:46.125Z,10.90
2018-11-13T02:16:16.967Z,10.90
2018-11-13T02:18:47.840Z,10.70
2018-11-13T02:21:18.728Z,10.50
2018-11-13T02:23:49.571Z,10.60
2018-11-13T02:26:20.499Z,10.60
2018-11-13T02:28:51.303Z,10.70
2018-11-13T02:31:22.172Z,10.70
2018-11-13T02:33:53.061Z,10.70
2018-11-13T02:36:24.005Z,10.70
2018-11-13T02:38:54.832Z,10.60
2018-11-13T02:41:25.661Z,10.50
2018-11-13T02:43:56.525Z,10.50
2018-11-13T02:46:27.773Z,10.50
2018-11-13T02:48:58.606Z,10.50
2018-11-13T02:51:29.452Z,10.50
2018-11-13T02:54:00.320Z,10.50
2018-11-13T02:56:31.186Z,10.60
2018-11-13T02:59:02.403Z,10.60
2018-11-13T03:01:33.352Z,10.60
2018-11-13T03:04:04.346Z,10.60
2018-11-13T03:06:35.566Z,10.60
2018-11-13T03:09:08.208Z,10.60
2018-11-13T03:11:39.149Z,10.50
2018-11-13T03:14:11.217Z,10.50
2018-11-13T03:16:42.182Z,10.50
2018-11-13T03:19:13.141Z,10.50
2018-11-13T03:21:44.122Z,10.50
2018-11-13T03:24:15.008Z,10.30
2018-11-13T03:26:45.859Z,10.30
2018-11-13T03:29:16.721Z,10.30
2018-11-13T03:31:47.531Z,10.30
2018-11-13T03:34:18.385Z,10.30
2018-11-13T03:36:49.300Z,10.30
2018-11-13T03:39:20.257Z,10.30
2018-11-13T03:41:51.067Z,10.40
2018-11-13T03:44:22.191Z,10.30
2018-11-13T03:46:52.965Z,10.20
2018-11-13T03:49:24.023Z,10.10
2018-11-13T03:51:54.884Z,10.20
2018-11-13T03:54:25.678Z,10.10
2018-11-13T03:56:56.515Z,10.00
2018-11-13T03:59:27.516Z,10.10
2018-11-13T04:01:58.360Z,10.00
2018-11-13T04:04:29.188Z,10.10
2018-11-13T04:07:00.084Z,10.20
2018-11-13T04:09:30.859Z,10.20
2018-11-13T04:12:01.716Z,10.10
2018-11-13T04:14:32.484Z,10.20
2018-11-13T04:17:03.505Z,10.20
2018-11-13T04:19:34.311Z,10.30
2018-11-13T04:22:05.721Z,10.30
2018-11-13T04:24:36.617Z,10.40
2018-11-13T04:27:07.589Z,10.40
2018-11-13T04:29:38.394Z,10.50
2018-11-13T04:32:09.390Z,10.60
2018-11-13T04:34:40.212Z,10.50
2018-11-13T04:37:11.015Z,10.50
2018-11-13T04:39:41.976Z,10.50
2018-11-13T04:42:12.843Z,10.50
2018-11-13T04:44:43.837Z,10.60
2018-11-13T04:47:14.660Z,10.60
2018-11-13T04:49:45.710Z,10.70
2018-11-13T04:52:16.529Z,10.70
2018-11-13T04:54:47.528Z,10.80
2018-11-13T04:57:18.335Z,10.80
2018-11-13T04:59:49.171Z,10.80
2018-11-13T05:02:20.073Z,10.80
2018-11-13T05:04:51.079Z,10.80
2018-11-13T05:07:21.919Z,10.90
2018-11-13T05:09:54.234Z,10.90
2018-11-13T05:12:25.263Z,10.80
2018-11-13T05:14:56.085Z,10.80
2018-11-13T05:17:27.259Z,10.90
2018-11-13T05:19:58.069Z,10.90
2018-11-13T05:22:29.448Z,10.90
2018-11-13T05:25:00.272Z,10.90
2018-11-13T05:27:31.170Z,10.80
2018-11-13T05:30:02.040Z,10.80
2018-11-13T05:32:32.960Z,10.80
2018-11-13T05:35:03.798Z,10.80
2018-11-13T05:37:34.661Z,10.80
2018-11-13T05:40:08.276Z,10.80
2018-11-13T05:42:39.485Z,10.80
2018-11-13T05:45:12.570Z,10.80
2018-11-13T05:47:43.576Z,10.80
2018-11-13T05:50:15.725Z,10.90
2018-11-13T05:52:48.106Z,10.90
2018-11-13T05:55:19.051Z,10.90
2018-11-13T05:57:50.185Z,11.00
2018-11-13T06:00:23.942Z,11.00
2018-11-13T06:02:54.841Z,11.00
2018-11-13T06:05:25.738Z,11.00
2018-11-13T06:07:56.856Z,11.10
2018-11-13T06:10:27.789Z,11.10
2018-11-13T06:12:58.729Z,11.00
2018-11-13T06:15:29.656Z,11.00
2018-11-13T06:18:00.980Z,10.90
2018-11-13T06:20:31.985Z,10.90
2018-11-13T06:23:02.919Z,11.00
2018-11-13T06:25:33.942Z,10.90
2018-11-13T06:28:04.820Z,11.00
2018-11-13T06:30:36.434Z,10.90
2018-11-13T06:33:07.637Z,11.00
2018-11-13T06:35:38.586Z,11.00
2018-11-13T06:38:09.500Z,10.90
2018-11-13T06:40:40.359Z,10.90
2018-11-13T06:43:11.219Z,10.90
2018-11-13T06:45:42.202Z,10.80
2018-11-13T06:48:13.161Z,10.80
2018-11-13T06:50:43.982Z,10.80
2018-11-13T06:53:15.024Z,10.80
2018-11-13T06:55:48.328Z,10.80
2018-11-13T06:58:19.225Z,10.80
2018-11-13T07:00:50.076Z,10.90
2018-11-13T07:03:20.996Z,10.90
2018-11-13T07:05:52.117Z,10.90
2018-11-13T07:08:24.104Z,10.90
2018-11-13T07:10:55.126Z,10.90
2018-11-13T07:13:26.033Z,10.90
2018-11-13T07:15:57.130Z,10.80
2018-11-13T07:18:28.072Z,10.80
2018-11-13T07:20:58.951Z,10.80
2018-11-13T07:23:29.755Z,10.80
2018-11-13T07:26:00.668Z,10.80
2018-11-13T07:28:31.783Z,10.80
2018-11-13T07:31:02.608Z,10.90
2018-11-13T07:33:33.461Z,10.90
2018-11-13T07:36:04.528Z,10.90
2018-11-13T07:38:35.386Z,10.80
2018-11-13T07:41:06.397Z,10.90
2018-11-13T07:43:37.284Z,10.90
2018-11-13T07:46:08.247Z,10.90
2018-11-13T07:48:39.603Z,11.00
2018-11-13T07:51:10.718Z,11.00
2018-11-13T07:53:41.532Z,11.00
2018-11-13T07:56:12.479Z,11.00
2018-11-13T07:58:43.372Z,11.00
2018-11-13T08:01:14.352Z,10.90
2018-11-13T08:03:45.186Z,10.90
2018-11-13T08:06:15.960Z,11.00
2018-11-13T08:08:47.588Z,10.90
2018-11-13T08:11:18.510Z,10.90
2018-11-13T08:13:49.532Z,11.00
2018-11-13T08:16:20.394Z,11.00
2018-11-13T08:18:51.281Z,11.00
2018-11-13T08:21:22.131Z,11.00
2018-11-13T08:23:53.037Z,11.00
2018-11-13T08:26:24.035Z,10.90
2018-11-13T08:28:54.854Z,10.90
2018-11-13T08:31:25.719Z,11.00
2018-11-13T08:33:56.484Z,11.10
2018-11-13T08:36:27.366Z,11.00
2018-11-13T08:38:58.221Z,11.10
2018-11-13T08:41:29.065Z,11.10
2018-11-13T08:44:00.070Z,11.00
2018-11-13T08:46:30.937Z,10.90
2018-11-13T08:49:01.951Z,11.00
2018-11-13T08:51:32.810Z,11.00
2018-11-13T08:54:03.914Z,11.00
2018-11-13T08:56:35.089Z,11.10
2018-11-13T08:59:06.169Z,11.10
2018-11-13T09:01:36.995Z,11.10
2018-11-13T09:04:08.289Z,11.10
2018-11-13T09:06:39.224Z,11.20
2018-11-13T09:09:13.024Z,11.20
2018-11-13T09:11:44.019Z,11.30
2018-11-13T09:14:14.891Z,11.30
2018-11-13T09:16:46.814Z,11.30
2018-11-13T09:19:17.807Z,11.30
2018-11-13T09:21:49.332Z,11.30
2018-11-13T09:24:20.277Z,11.30
2018-11-13T09:26:51.232Z,11.40
2018-11-13T09:29:22.069Z,11.40
2018-11-13T09:31:53.358Z,11.40
2018-11-13T09:34:24.206Z,11.50
2018-11-13T09:36:55.315Z,11.50
2018-11-13T09:39:26.213Z,11.50
2018-11-13T09:41:57.224Z,11.50
2018-11-13T09:44:28.098Z,11.50
2018-11-13T09:46:58.895Z,11.50
2018-11-13T09:49:29.709Z,11.60
2018-11-13T09:52:00.560Z,11.70
2018-11-13T09:54:31.429Z,11.60
2018-11-13T09:57:02.243Z,11.60
2018-11-13T09:59:33.101Z,11.60
2018-11-13T10:02:04.446Z,11.60
2018-11-13T10:04:35.890Z,11.70
2018-11-13T10:07:06.512Z,11.70
2018-11-13T10:09:37.452Z,11.70
2018-11-13T10:12:08.412Z,11.80
2018-11-13T10:14:39.290Z,11.80
2018-11-13T10:17:10.226Z,11.80
2018-11-13T10:19:41.124Z,11.80
2018-11-13T10:22:11.912Z,11.80
2018-11-13T10:24:42.711Z,11.80
2018-11-13T10:27:13.643Z,11.70
2018-11-13T10:29:44.573Z,11.70
2018-11-13T10:32:15.549Z,11.80
2018-11-13T10:34:46.401Z,11.80
2018-11-13T10:37:17.548Z,11.80
2018-11-13T10:39:48.433Z,11.80
2018-11-13T10:42:19.278Z,11.80
2018-11-13T10:44:50.148Z,11.80
2018-11-13T10:47:20.993Z,11.80
2018-11-13T10:49:52.385Z,11.90
2018-11-13T10:52:23.261Z,12.00
2018-11-13T10:54:54.221Z,12.10
2018-11-13T10:57:25.052Z,12.10
2018-11-13T10:59:55.936Z,12.10
2018-11-13T11:02:31.922Z,12.10
2018-11-13T11:05:07.784Z,12.20
2018-11-13T11:07:38.641Z,12.30
2018-11-13T11:10:10.118Z,12.30
2018-11-13T11:12:41.267Z,12.40
2018-11-13T11:15:12.254Z,12.40
2018-11-13T11:17:43.122Z,12.40
2018-11-13T11:20:14.577Z,12.50
2018-11-13T11:22:45.482Z,12.40
2018-11-13T11:25:16.348Z,12.50
2018-11-13T11:27:47.147Z,12.50
2018-11-13T11:30:18.703Z,12.50
2018-11-13T11:32:49.539Z,12.50
2018-11-13T11:35:20.448Z,12.50
2018-11-13T11:37:51.344Z,12.50
2018-11-13T11:40:22.165Z,12.50
2018-11-13T11:42:53.041Z,12.50
2018-11-13T11:45:23.904Z,12.50
2018-11-13T11:47:54.795Z,12.60
2018-11-13T11:50:25.717Z,12.60
2018-11-13T11:52:56.653Z,12.60
2018-11-13T11:55:27.520Z,12.60
2018-11-13T11:57:58.358Z,12.60
2018-11-13T12:00:32.919Z,12.60
2018-11-13T12:03:04.460Z,12.60
2018-11-13T12:05:35.317Z,12.70
2018-11-13T12:08:06.256Z,12.70
2018-11-13T12:10:37.121Z,12.80
2018-11-13T12:13:07.912Z,12.80
2018-11-13T12:15:38.801Z,12.90
2018-11-13T12:18:09.653Z,13.00
2018-11-13T12:20:40.524Z,13.00
2018-11-13T12:23:13.101Z,12.90
2018-11-13T12:25:44.170Z,13.00
2018-11-13T12:28:16.172Z,12.90
2018-11-13T12:30:47.268Z,12.90
2018-11-13T12:33:18.373Z,12.80
2018-11-13T12:35:49.262Z,12.80
2018-11-13T12:38:20.165Z,12.70
2018-11-13T12:40:51.072Z,12.70
2018-11-13T12:43:21.943Z,12.70
2018-11-13T12:45:53.024Z,12.70
2018-11-13T12:48:24.153Z,12.60
2018-11-13T12:51:03.233Z,12.60
2018-11-13T12:53:35.135Z,12.60
2018-11-13T12:56:06.072Z,12.50
2018-11-13T12:58:37.142Z,12.50
2018-11-13T13:01:08.057Z,12.50
2018-11-13T13:03:39.223Z,12.40
2018-11-13T13:06:10.589Z,12.30
2018-11-13T13:08:41.509Z,12.20
2018-11-13T13:11:12.430Z,12.20
2018-11-13T13:13:44.212Z,12.20
2018-11-13T13:16:16.522Z,12.20
2018-11-13T13:18:47.377Z,12.20
2018-11-13T13:21:18.581Z,12.20
2018-11-13T13:23:49.769Z,12.10
2018-11-13T13:26:21.579Z,12.00
2018-11-13T13:28:52.618Z,11.90
2018-11-13T13:31:24.131Z,11.90
2018-11-13T13:33:55.130Z,11.80
2018-11-13T13:36:26.301Z,11.70
2018-11-13T13:38:57.391Z,11.70
2018-11-13T13:41:28.399Z,11.60
2018-11-13T13:43:59.263Z,11.50
2018-11-13T13:46:31.314Z,11.30
2018-11-13T13:49:02.288Z,11.20
2018-11-13T13:51:33.257Z,11.20
2018-11-13T13:54:04.490Z,11.20
2018-11-13T13:56:35.682Z,11.10
2018-11-13T13:59:06.758Z,11.00
2018-11-13T14:01:37.762Z,11.00
2018-11-13T14:04:08.741Z,10.90
2018-11-13T14:06:39.740Z,11.00
2018-11-13T14:09:11.624Z,10.90
2018-11-13T14:11:42.758Z,10.90
2018-11-13T14:14:14.092Z,10.90
2018-11-13T14:16:45.297Z,10.80
2018-11-13T14:19:16.313Z,10.80
2018-11-13T14:21:47.313Z,10.70
2018-11-13T14:24:18.317Z,10.70
2018-11-13T14:26:49.325Z,10.80
2018-11-13T14:29:20.533Z,10.80
2018-11-13T14:31:51.539Z,10.70
2018-11-13T14:34:22.457Z,10.70
2018-11-13T14:36:53.630Z,10.70
2018-11-13T14:39:25.614Z,10.70
2018-11-13T14:41:56.607Z,10.60
2018-11-13T14:44:27.702Z,10.60
2018-11-13T14:46:59.785Z,10.60
2018-11-13T14:49:31.021Z,10.60
2018-11-13T14:52:02.256Z,10.60
2018-11-13T14:54:33.161Z,10.60
2018-11-13T14:57:04.905Z,10.60
2018-11-13T14:59:35.920Z,10.40
2018-11-13T15:02:07.722Z,10.40
2018-11-13T15:04:38.845Z,10.40
2018-11-13T15:07:09.890Z,10.50
2018-11-13T15:09:41.383Z,10.40
2018-11-13T15:12:12.413Z,10.40
2018-11-13T15:14:43.361Z,10.30
2018-11-13T15:17:14.393Z,10.30
2018-11-13T15:19:45.281Z,10.30
2018-11-13T15:22:16.359Z,10.30
2018-11-13T15:24:47.550Z,10.20
2018-11-13T15:27:25.709Z,10.20
2018-11-13T15:29:56.732Z,10.20
2018-11-13T15:32:27.741Z,10.20
2018-11-13T15:34:59.120Z,10.40
2018-11-13T15:37:30.163Z,10.30
2018-11-13T15:40:01.775Z,10.40
2018-11-13T15:42:32.730Z,10.40
2018-11-13T15:45:04.031Z,10.40
2018-11-13T15:47:35.323Z,10.50
2018-11-13T15:50:08.153Z,10.50
2018-11-13T15:52:39.650Z,10.50
2018-11-13T15:55:11.919Z,10.50
2018-11-13T15:57:43.893Z,10.50
2018-11-13T16:00:21.530Z,10.50
2018-11-13T16:02:52.955Z,10.50
2018-11-13T16:05:35.958Z,10.50
2018-11-13T16:08:08.220Z,10.50
2018-11-13T16:10:39.303Z,10.60
2018-11-13T16:13:10.545Z,10.50
2018-11-13T16:15:41.910Z,10.40
2018-11-13T16:18:14.437Z,10.50
2018-11-13T16:20:46.466Z,10.40
2018-11-13T16:23:17.437Z,10.50
2018-11-13T16:25:48.606Z,10.60
2018-11-13T16:28:20.594Z,10.60
2018-11-13T16:30:51.761Z,10.50
2018-11-13T16:33:23.794Z,10.50
2018-11-13T16:35:54.665Z,10.50
2018-11-13T16:38:26.526Z,10.50
2018-11-13T16:40:57.383Z,10.50
2018-11-13T16:43:28.497Z,10.50
2018-11-13T16:45:59.402Z,10.60
2018-11-13T16:48:30.458Z,10.60
2018-11-13T16:51:01.652Z,10.60
2018-11-13T16:53:36.683Z,10.60
2018-11-13T16:56:08.269Z,10.60
2018-11-13T16:58:39.422Z,10.60
2018-11-13T17:01:11.272Z,10.60
2018-11-13T17:03:42.256Z,10.60
2018-11-13T17:06:13.341Z,10.60
2018-11-13T17:08:44.253Z,10.60
2018-11-13T17:11:15.284Z,10.50
2018-11-13T17:13:46.112Z,10.60
2018-11-13T17:16:17.113Z,10.60
2018-11-13T17:18:49.073Z,10.60
2018-11-13T17:21:20.773Z,10.70
2018-11-13T17:23:52.087Z,10.60
2018-11-13T17:26:23.424Z,10.60
2018-11-13T17:28:54.907Z,10.60
2018-11-13T17:31:27.036Z,10.60
2018-11-13T17:33:59.029Z,10.70
2018-11-13T17:36:30.078Z,10.60
2018-11-13T17:39:01.141Z,10.70
2018-11-13T17:41:32.130Z,10.70
2018-11-13T17:44:03.256Z,10.70
2018-11-13T17:46:34.399Z,10.80
2018-11-13T17:49:05.667Z,10.80
2018-11-13T17:51:36.792Z,10.80
2018-11-13T17:54:07.849Z,10.80
2018-11-13T17:56:39.126Z,10.90
2018-11-13T17:59:10.140Z,10.90
2018-11-13T18:01:41.104Z,10.90
2018-11-13T18:04:12.877Z,11.00
2018-11-13T18:06:43.932Z,11.00
2018-11-13T18:09:15.969Z,11.10
2018-11-13T18:11:47.068Z,11.10
2018-11-13T18:14:18.464Z,11.10
2018-11-13T18:16:49.586Z,11.00
2018-11-13T18:19:20.864Z,11.00
2018-11-13T18:21:52.156Z,10.90
2018-11-13T18:24:23.285Z,10.80
2018-11-13T18:26:54.516Z,10.90
2018-11-13T18:29:25.596Z,10.80
2018-11-13T18:31:56.803Z,10.90
2018-11-13T18:34:27.976Z,10.90
2018-11-13T18:36:59.126Z,10.90
2018-11-13T18:39:30.177Z,10.90
2018-11-13T18:42:01.796Z,11.00
2018-11-13T18:44:32.950Z,11.00
2018-11-13T18:47:04.268Z,10.90
2018-11-13T18:49:35.298Z,10.90
2018-11-13T18:52:06.832Z,10.80
2018-11-13T18:54:38.210Z,10.80
2018-11-13T18:57:09.296Z,10.90
2018-11-13T18:59:40.672Z,10.90
2018-11-13T19:02:12.565Z,10.90
2018-11-13T19:04:44.434Z,10.80
2018-11-13T19:07:17.058Z,10.80
2018-11-13T19:09:49.869Z,10.80
2018-11-13T19:12:22.805Z,10.80
2018-11-13T19:14:54.614Z,10.80
2018-11-13T19:17:25.962Z,10.70
2018-11-13T19:19:57.371Z,10.70
2018-11-13T19:22:28.401Z,10.70
2018-11-13T19:24:59.561Z,10.70
2018-11-13T19:27:31.885Z,10.70
2018-11-13T19:30:03.108Z,10.70
2018-11-13T19:32:34.447Z,10.70
2018-11-13T19:35:06.146Z,10.70
2018-11-13T19:37:38.044Z,10.70
2018-11-13T19:40:15.920Z,10.80
2018-11-13T19:42:47.841Z,10.70
2018-11-13T19:45:19.141Z,10.80
2018-11-13T19:47:50.211Z,10.80
2018-11-13T19:50:22.845Z,10.80
2018-11-13T19:52:54.312Z,10.70
2018-11-13T19:55:26.379Z,10.80
2018-11-13T19:57:58.186Z,10.80
2018-11-13T20:00:32.458Z,10.90
2018-11-13T20:03:04.942Z,10.90
2018-11-13T20:05:36.082Z,11.00
2018-11-13T20:08:08.564Z,11.00
2018-11-13T20:10:40.475Z,11.10
2018-11-13T20:13:12.203Z,11.10
2018-11-13T20:15:43.816Z,11.10
2018-11-13T20:18:15.600Z,11.10
2018-11-13T20:20:46.656Z,11.20
2018-11-13T20:23:17.702Z,11.20
2018-11-13T20:25:48.780Z,11.20
2018-11-13T20:28:19.746Z,11.20
2018-11-13T20:30:50.886Z,11.20
2018-11-13T20:33:21.942Z,11.10
2018-11-13T20:35:53.080Z,11.00
2018-11-13T20:38:24.012Z,11.00
2018-11-13T20:40:55.524Z,11.00
2018-11-13T20:43:27.311Z,11.00
2018-11-13T20:45:59.652Z,11.00
2018-11-13T20:48:31.858Z,11.00
2018-11-13T20:51:03.440Z,11.00
2018-11-13T20:53:35.133Z,11.00
2018-11-13T20:56:06.706Z,11.00
2018-11-13T20:58:38.121Z,11.10
2018-11-13T21:01:09.618Z,11.00
2018-11-13T21:03:40.671Z,11.00
2018-11-13T21:06:11.667Z,11.00
2018-11-13T21:08:43.305Z,11.00
2018-11-13T21:11:15.215Z,11.00
2018-11-13T21:13:47.463Z,11.00
2018-11-13T21:16:19.059Z,11.10
2018-11-13T21:18:50.259Z,11.10
2018-11-13T21:21:22.006Z,11.30
2018-11-13T21:23:54.227Z,11.30
2018-11-13T21:26:25.723Z,11.40
2018-11-13T21:28:56.996Z,11.50
2018-11-13T21:31:28.647Z,11.50
2018-11-13T21:33:59.625Z,11.50
2018-11-13T21:36:31.303Z,11.40
2018-11-13T21:39:03.110Z,11.50
2018-11-13T21:41:34.704Z,11.40
2018-11-13T21:44:06.391Z,11.50
2018-11-13T21:46:37.726Z,11.50
2018-11-13T21:49:09.169Z,11.50
2018-11-13T21:51:40.848Z,11.50
2018-11-13T21:54:12.297Z,11.50
2018-11-13T21:56:43.191Z,11.50
2018-11-13T21:59:14.249Z,11.40
2018-11-13T22:01:45.580Z,11.30
2018-11-13T22:04:16.876Z,11.30
2018-11-13T22:06:49.065Z,11.30
2018-11-13T22:09:20.249Z,11.20
2018-11-13T22:11:51.525Z,11.20
2018-11-13T22:14:22.904Z,11.10
2018-11-13T22:16:54.316Z,11.10
2018-11-13T22:19:25.423Z,11.10
2018-11-13T22:21:56.800Z,11.10
2018-11-13T22:24:27.933Z,11.10
2018-11-13T22:26:58.938Z,11.00
2018-11-13T22:29:29.910Z,11.00
2018-11-13T22:32:00.925Z,11.00
2018-11-13T22:34:32.350Z,10.90
2018-11-13T22:37:03.957Z,10.90
2018-11-13T22:39:35.623Z,10.80
2018-11-13T22:42:07.920Z,10.80
2018-11-13T22:44:39.336Z,10.80
2018-11-13T22:47:10.990Z,10.70
2018-11-13T22:49:43.055Z,10.70
2018-11-13T22:52:14.621Z,10.70
2018-11-13T22:54:46.952Z,10.70
2018-11-13T22:57:18.609Z,10.70
2018-11-13T22:59:50.802Z,10.60
2018-11-13T23:02:22.318Z,10.60
2018-11-13T23:04:53.836Z,10.60
2018-11-13T23:07:25.273Z,10.60
2018-11-13T23:09:56.582Z,10.60
2018-11-13T23:12:27.950Z,10.50
2018-11-13T23:14:59.645Z,10.50
2018-11-13T23:17:32.008Z,10.40
2018-11-13T23:20:03.784Z,10.40
2018-11-13T23:22:35.040Z,10.40
2018-11-13T23:25:07.439Z,10.30
2018-11-13T23:27:38.928Z,10.30
2018-11-13T23:30:20.385Z,10.30
2018-11-13T23:32:52.466Z,10.20
2018-11-13T23:35:24.208Z,10.20
2018-11-13T23:37:57.344Z,10.20
2018-11-13T23:40:30.028Z,10.10
2018-11-13T23:43:01.779Z,10.10
2018-11-13T23:45:33.355Z,10.10
2018-11-13T23:48:04.936Z,10.10
2018-11-13T23:50:36.619Z,10.00
2018-11-13T23:53:08.509Z,9.90
2018-11-13T23:55:40.252Z,9.90
2018-11-13T23:58:11.308Z,9.90
